Time;durP1;ratioP1;P1;durP2;ratioP2;P2;SDS_P1;SDS_P2;PMS_P1;PMS_P2;Temp;Humidity;BMP_temperature;BMP_pressure;BME280_temperature;BME280_humidity;BME280_pressure;Samples;Min_cycle;Max_cycle;Signal;HPM_P1;HPM_P2
2022/12/25 00:00:07;;;;;;;41.20;14.10;;;11.90;99.90;;;12.11;99.64;101233.72;5055564;28;20056;-63
2022/12/25 00:02:42;;;;;;;36.75;15.57;;;11.90;99.90;;;12.00;99.66;101234.66;5055320;28;20049;-63
2022/12/25 00:05:10;;;;;;;25.92;14.43;;;11.90;99.90;;;12.04;99.85;101233.75;5055433;28;20075;-66
2022/12/25 00:07:39;;;;;;;33.70;14.73;;;11.80;99.90;;;12.01;99.96;101213.41;5055123;28;20112;-67
2022/12/25 00:10:10;;;;;;;30.58;14.15;;;11.80;99.90;;;12.08;100.00;101232.84;5055087;28;20120;-67
2022/12/25 00:12:39;;;;;;;33.13;15.57;;;11.90;99.90;;;11.98;100.00;101221.38;5055335;28;20445;-67
2022/12/25 00:15:08;;;;;;;30.52;14.60;;;11.80;99.90;;;12.03;100.00;101213.41;5054149;28;20041;-67
2022/12/25 00:17:36;;;;;;;32.08;15.60;;;11.80;99.90;;;11.95;100.00;101194.88;5054884;28;20065;-67
2022/12/25 00:20:06;;;;;;;29.80;15.00;;;11.90;99.90;;;11.64;100.00;101162.31;5054885;28;20126;-67
2022/12/25 00:22:35;;;;;;;31.73;15.65;;;11.90;99.90;;;11.99;100.00;101219.59;5054862;28;20048;-67
2022/12/25 00:25:04;;;;;;;30.67;15.68;;;11.80;99.90;;;12.00;100.00;101216.94;5054813;28;20045;-67
2022/12/25 00:27:36;;;;;;;35.67;16.10;;;11.80;99.90;;;11.98;100.00;101213.41;5054943;28;20056;-67
2022/12/25 00:30:06;;;;;;;32.40;15.07;;;11.80;99.90;;;11.95;100.00;101234.66;5055016;28;20423;-67
2022/12/25 00:32:36;;;;;;;31.67;16.15;;;11.80;99.90;;;11.95;100.00;101223.16;5054724;28;20090;-67
2022/12/25 00:35:05;;;;;;;29.55;16.58;;;11.80;99.90;;;11.98;100.00;101224.03;5053634;28;20053;-67
2022/12/25 00:37:33;;;;;;;32.03;17.40;;;11.70;99.90;;;11.98;100.00;101217.84;5053499;28;20048;-67
2022/12/25 00:40:02;;;;;;;36.67;17.40;;;11.80;99.90;;;12.05;100.00;101240.78;5055083;28;20235;-67
2022/12/25 00:42:30;;;;;;;31.80;16.50;;;11.80;99.90;;;12.05;100.00;101231.06;5054539;28;20060;-67
2022/12/25 00:45:00;;;;;;;36.15;17.92;;;11.80;99.90;;;12.09;100.00;101226.63;5054666;28;20033;-67
2022/12/25 00:47:30;;;;;;;35.53;17.70;;;11.80;99.90;;;11.68;100.00;101156.16;5054712;28;20049;-67
2022/12/25 00:49:58;;;;;;;31.42;18.05;;;11.90;99.90;;;12.16;100.00;101225.72;5054622;28;20044;-67
2022/12/25 00:52:26;;;;;;;32.20;16.77;;;11.90;99.90;;;12.17;100.00;101232.78;5054510;28;20513;-67
2022/12/25 00:54:55;;;;;;;28.70;17.08;;;12.00;99.90;;;12.16;100.00;101231.91;5054560;28;20045;-67
2022/12/25 00:57:23;;;;;;;33.20;17.90;;;12.00;99.90;;;12.16;100.00;101237.19;5054052;28;20136;-67
2022/12/25 00:59:51;;;;;;;33.20;17.67;;;12.00;99.90;;;12.20;100.00;101224.81;5052827;28;20136;-67
2022/12/25 01:02:24;;;;;;;33.55;17.60;;;12.00;99.90;;;12.22;100.00;101238.94;5054230;28;20136;-67
2022/12/25 01:04:55;;;;;;;34.50;18.25;;;12.00;99.90;;;11.97;100.00;101227.56;5054643;28;20514;-67
2022/12/25 01:07:25;;;;;;;;;;;12.00;99.90;;;12.20;100.00;101230.09;5054444;28;20045;-67
2022/12/25 01:12:41;;;;;;;32.03;17.27;;;12.00;99.90;;;12.16;100.00;101207.13;5054252;28;20048;-67
2022/12/25 01:15:12;;;;;;;32.65;18.27;;;12.10;99.90;;;12.25;100.00;101228.31;5053887;28;20037;-67
2022/12/25 01:17:42;;;;;;;;;;;12.00;99.90;;;12.21;100.00;101226.59;5054469;28;20437;-67
2022/12/25 01:20:13;;;;;;;32.15;17.10;;;12.00;99.90;;;12.27;100.00;101222.09;5054394;28;19920;-67
2022/12/25 01:22:42;;;;;;;33.30;17.88;;;12.00;99.90;;;12.28;100.00;101223.00;5053771;28;20103;-67
2022/12/25 01:25:11;;;;;;;31.77;18.20;;;12.00;99.90;;;12.28;100.00;101223.88;5053702;28;20043;-67
2022/12/25 01:27:42;;;;;;;27.35;19.73;;;12.10;99.90;;;12.31;99.91;101220.34;5053442;28;20040;-67
2022/12/25 01:30:11;;;;;;;32.80;19.67;;;12.10;99.90;;;12.28;100.00;101225.66;5054532;28;20041;-67
2022/12/25 01:32:40;;;;;;;24.90;17.52;;;12.10;99.90;;;12.26;100.00;101235.38;5053618;28;20045;-67
2022/12/25 01:35:10;;;;;;;31.52;20.58;;;12.00;99.90;;;12.28;100.00;101234.50;5053764;28;20053;-67
2022/12/25 01:37:39;;;;;;;;;;;12.00;99.90;;;12.28;100.00;101239.81;5053903;28;20051;-67
2022/12/25 01:40:09;;;;;;;35.13;18.98;;;12.10;99.90;;;12.21;99.98;101229.22;5053391;28;20382;-67
2022/12/25 01:42:37;;;;;;;31.17;20.07;;;12.00;99.90;;;12.23;100.00;101240.72;5053706;28;20431;-67
2022/12/25 01:45:38;;;;;;;33.95;19.75;;;12.00;99.90;;;12.24;100.00;101231.84;5053316;28;20319;-67
2022/12/25 01:48:13;;;;;;;28.55;19.35;;;12.00;99.90;;;12.28;100.00;101238.91;5069047;28;20406;-67
2022/12/25 01:50:48;;;;;;;28.00;18.92;;;12.00;99.90;;;12.33;100.00;101237.13;5053300;28;20053;-67
2022/12/25 01:53:16;;;;;;;31.20;19.52;;;12.10;99.90;;;12.32;100.00;101249.50;5053549;28;20490;-67
2022/12/25 01:55:47;;;;;;;32.17;19.10;;;12.10;99.90;;;12.33;100.00;101247.75;5053175;28;20048;-67
2022/12/25 01:58:16;;;;;;;33.63;19.27;;;12.10;99.90;;;12.20;100.00;101227.47;5053238;28;20049;-66
2022/12/25 02:00:45;;;;;;;30.58;18.55;;;12.10;99.90;;;12.36;100.00;101234.44;5053133;28;20055;-67
2022/12/25 02:03:13;;;;;;;23.98;17.33;;;12.10;99.90;;;11.95;100.00;101160.44;5053189;28;20382;-67
2022/12/25 02:05:45;;;;;;;28.02;17.92;;;12.20;99.90;;;12.34;100.00;101222.97;5053374;28;20487;-67
2022/12/25 02:08:17;;;;;;;27.63;16.75;;;12.20;99.90;;;12.34;100.00;101226.50;5053204;28;20407;-67
2022/12/25 02:10:46;;;;;;;27.27;17.42;;;12.20;99.90;;;12.37;100.00;101238.84;5053008;28;20040;-67
2022/12/25 02:13:18;;;;;;;28.60;17.40;;;12.20;99.90;;;12.38;100.00;101235.31;5052969;28;20047;-67
2022/12/25 02:15:55;;;;;;;26.88;17.50;;;12.20;99.90;;;11.99;100.00;101172.78;5053351;28;20110;-67
2022/12/25 02:18:35;;;;;;;26.50;16.65;;;12.20;99.90;;;12.41;100.00;101233.53;5052881;28;20045;-67
2022/12/25 02:21:35;;;;;;;29.90;16.95;;;12.20;99.90;;;12.40;100.00;101239.75;5053585;28;20047;-67
2022/12/25 02:24:34;;;;;;;25.42;18.00;;;12.20;99.90;;;12.26;100.00;101198.25;5053132;28;20542;-67
2022/12/25 02:27:18;;;;;;;27.65;17.10;;;12.20;99.90;;;12.42;100.00;101224.69;5047401;28;20141;-67
2022/12/25 02:29:58;;;;;;;25.40;16.35;;;12.20;99.90;;;12.45;100.00;101224.66;5052836;28;20045;-67
2022/12/25 02:32:31;;;;;;;30.50;17.35;;;12.30;99.90;;;12.23;100.00;101207.09;5053021;28;20076;-67
2022/12/25 02:35:03;;;;;;;29.58;19.05;;;12.20;99.90;;;12.19;100.00;101210.69;5052787;28;20064;-67
2022/12/25 02:37:38;;;;;;;29.52;19.15;;;12.10;99.90;;;12.24;100.00;101229.19;5052754;28;20041;-67
2022/12/25 02:40:16;;;;;;;32.35;19.58;;;12.10;99.90;;;12.16;100.00;101207.13;5055986;28;20040;-67
2022/12/25 03:08:48;;;;;;;38.70;22.55;;;12.10;99.90;;;12.28;100.00;101162.00;5055311;28;20053;-67
2022/12/25 03:11:31;;;;;;;35.72;22.67;;;12.10;99.90;;;12.33;100.00;101173.47;5056237;28;20049;-67
2022/12/25 03:16:52;;;;;;;33.92;21.38;;;12.20;99.90;;;12.38;100.00;101166.34;5056139;28;20165;-67
2022/12/25 03:27:54;;;;;;;36.58;22.80;;;12.20;99.90;;;12.39;100.00;101168.97;5056243;28;20045;-67
2022/12/25 03:33:18;;;;;;;38.45;23.60;;;12.10;99.90;;;12.28;100.00;101165.53;5056110;28;20049;-67
2022/12/25 03:36:14;;;;;;;37.75;23.95;;;12.10;99.90;;;12.33;100.00;101158.41;5055671;28;20055;-67
2022/12/25 04:38:02;;;;;;;28.55;18.85;;;11.70;99.90;;;11.90;100.00;101151.63;5054816;28;20483;-67
2022/12/25 04:40:30;;;;;;;28.70;18.08;;;11.70;99.90;;;11.95;100.00;101146.28;5054789;28;20052;-67
2022/12/25 04:43:00;;;;;;;27.17;17.15;;;11.70;99.90;;;11.97;100.00;101147.16;5054528;28;20128;-67
2022/12/25 04:45:29;;;;;;;28.13;17.25;;;11.70;99.90;;;11.97;100.00;101148.03;5054697;28;20048;-67
2022/12/25 04:47:59;;;;;;;25.65;15.65;;;11.80;99.90;;;11.97;100.00;101149.81;5070036;28;20037;-67
2022/12/25 04:50:27;;;;;;;;;;;11.80;99.90;;;11.71;100.00;101107.56;5054927;28;20067;-67
2022/12/25 04:52:56;;;;;;;28.45;14.55;;;11.80;99.90;;;11.68;100.00;101103.16;5054348;28;19924;-66
2022/12/25 04:55:24;;;;;;;26.40;14.52;;;11.80;99.90;;;11.88;100.00;101123.34;5054621;28;20049;-67
2022/12/25 04:57:52;;;;;;;27.50;14.27;;;11.70;99.90;;;11.89;100.00;101130.41;5070007;28;20044;-67
2022/12/25 05:00:22;;;;;;;23.23;13.98;;;11.70;99.90;;;11.88;100.00;101120.72;5054275;28;20053;-67
2022/12/25 05:02:51;;;;;;;20.90;12.90;;;11.70;99.90;;;11.73;100.00;101125.19;5053573;28;20041;-67
2022/12/25 05:05:19;;;;;;;19.83;12.00;;;11.60;99.90;;;11.76;100.00;101129.59;5054120;28;20479;-67
2022/12/25 05:07:47;;;;;;;18.05;11.13;;;11.60;99.90;;;11.78;100.00;101120.78;5054025;28;20033;-67
2022/12/25 05:10:16;;;;;;;16.27;10.68;;;11.60;99.90;;;11.33;100.00;101036.19;5053971;28;20445;-67
2022/12/25 05:12:45;;;;;;;18.55;10.95;;;11.60;99.90;;;11.78;100.00;101138.44;5053953;28;20041;-67
2022/12/25 05:15:13;;;;;;;17.75;10.45;;;11.60;99.90;;;11.71;100.00;101119.03;5053890;28;20048;-67
2022/12/25 05:17:43;;;;;;;19.55;11.40;;;11.60;99.90;;;11.64;100.00;101122.56;5053876;28;20450;-67
2022/12/25 05:20:12;;;;;;;16.60;9.83;;;11.50;99.90;;;11.66;100.00;101115.53;5054031;28;20033;-67
2022/12/25 05:22:42;;;;;;;23.63;11.63;;;11.50;99.90;;;11.63;100.00;101131.38;5053952;28;20498;-67
2022/12/25 05:25:10;;;;;;;17.83;11.40;;;11.50;99.90;;;11.43;100.00;101072.34;5053852;28;20045;-67
2022/12/25 05:27:38;;;;;;;20.10;11.93;;;11.50;99.90;;;11.68;100.00;101116.41;5053864;28;20049;-67
2022/12/25 05:30:09;;;;;;;20.88;11.55;;;11.50;99.90;;;11.73;100.00;101126.97;5053889;28;20142;-67
2022/12/25 05:32:37;;;;;;;21.90;11.25;;;11.50;99.90;;;11.76;100.00;101124.31;5053757;28;20055;-67
2022/12/25 05:35:08;;;;;;;18.92;12.57;;;11.60;99.90;;;11.77;100.00;101126.94;5053545;28;20120;-67
2022/12/25 05:37:36;;;;;;;21.95;13.20;;;11.60;99.90;;;11.81;100.00;101141.06;5053817;28;20048;-67
2022/12/25 05:40:08;;;;;;;23.05;14.25;;;11.60;99.90;;;11.72;100.00;101126.09;5053668;28;20079;-67
2022/12/25 05:42:37;;;;;;;23.02;14.00;;;11.60;99.90;;;11.79;100.00;101121.63;5053731;28;20072;-67
2022/12/25 05:45:07;;;;;;;21.13;14.82;;;11.60;99.90;;;11.79;100.00;101135.78;5069302;28;20045;-67
2022/12/25 05:47:35;;;;;;;23.85;15.93;;;11.60;99.90;;;11.71;100.00;101113.72;5053624;28;20052;-67
2022/12/25 05:50:06;;;;;;;24.25;15.90;;;11.50;99.90;;;11.78;100.00;101123.44;5053323;28;20076;-67
2022/12/25 05:52:35;;;;;;;26.45;17.17;;;11.60;99.90;;;11.77;100.00;101107.50;5053866;28;20049;-67
2022/12/25 05:55:04;;;;;;;29.13;18.33;;;11.60;99.90;;;11.82;100.00;101113.69;5052269;28;20037;-67
2022/12/25 05:57:32;;;;;;;30.85;21.67;;;11.60;99.90;;;11.76;100.00;101111.06;5053189;28;20128;-67
2022/12/25 06:00:01;;;;;;;29.42;21.20;;;11.60;99.90;;;11.76;100.00;101098.69;5053216;28;20049;-67
2022/12/25 06:02:39;;;;;;;28.10;20.55;;;11.60;99.90;;;11.69;100.00;101089.00;5053129;28;20051;-68
2022/12/25 06:05:10;;;;;;;28.58;21.10;;;11.50;99.90;;;11.76;100.00;101109.28;5053092;28;20106;-68
2022/12/25 06:07:38;;;;;;;27.38;20.23;;;11.50;99.90;;;11.79;100.00;101082.75;5053779;28;20040;-68
2022/12/25 06:10:08;;;;;;;31.35;21.38;;;11.60;99.90;;;11.76;100.00;101074.84;5053056;28;20164;-67
2022/12/25 06:12:37;;;;;;;32.00;21.63;;;11.60;99.90;;;11.80;99.99;101081.00;5053124;28;20128;-68
2022/12/25 06:15:07;;;;;;;29.88;19.67;;;11.70;99.90;;;11.87;100.00;101071.22;5068814;28;20049;-67
2022/12/25 06:17:36;;;;;;;28.17;20.25;;;11.70;99.90;;;11.86;100.00;101074.78;5053381;28;20041;-67
2022/12/25 06:20:06;;;;;;;29.33;21.77;;;11.70;99.90;;;11.77;99.89;101055.38;5052694;28;20037;-67
2022/12/25 06:22:35;;;;;;;34.50;23.63;;;11.70;99.90;;;11.81;100.00;101058.03;5052638;28;20041;-67
2022/12/25 06:25:04;;;;;;;36.50;24.42;;;11.70;99.90;;;11.84;99.92;101069.50;5052979;28;20286;-67
2022/12/25 06:27:33;;;;;;;34.10;23.63;;;11.70;99.90;;;11.85;100.00;101063.28;5052539;28;20045;-67
2022/12/25 06:30:01;;;;;;;30.60;23.67;;;11.70;99.90;;;11.86;100.00;101069.47;5052641;28;20048;-67
2022/12/25 06:32:29;;;;;;;33.75;23.83;;;11.70;99.90;;;11.85;99.95;101067.69;5053086;28;20043;-67
2022/12/25 06:34:58;;;;;;;30.98;22.58;;;11.70;99.90;;;11.87;99.90;101060.63;5052583;28;20081;-67
2022/12/25 06:37:26;;;;;;;32.67;22.92;;;11.70;99.90;;;11.83;99.85;101062.41;5052474;28;20083;-67
2022/12/25 06:39:56;;;;;;;37.30;26.25;;;11.70;99.90;;;11.62;100.00;101031.63;5052617;28;20045;-67
2022/12/25 06:42:24;;;;;;;33.80;23.80;;;11.70;99.90;;;11.84;100.00;101072.16;5052586;28;20127;-67
2022/12/25 06:44:52;;;;;;;37.85;24.63;;;11.70;99.90;;;11.88;100.00;101057.09;5052545;28;20048;-67
2022/12/25 06:47:21;;;;;;;42.53;28.45;;;11.70;99.90;;;11.88;100.00;101058.00;5068150;28;20511;-67
2022/12/25 06:49:49;;;;;;;45.20;28.90;;;11.70;99.90;;;11.86;100.00;101057.13;5052640;28;20045;-68
2022/12/25 06:52:17;;;;;;;44.95;29.35;;;11.70;99.90;;;11.74;100.00;101046.59;5052734;28;20037;-67
2022/12/25 06:54:47;;;;;;;39.90;27.35;;;11.60;99.90;;;11.88;100.00;101058.00;5052380;28;20040;-67
2022/12/25 06:57:17;;;;;;;43.13;28.60;;;11.70;99.90;;;11.87;100.00;101050.91;5052301;28;20060;-67
2022/12/25 06:59:46;;;;;;;40.55;28.85;;;11.70;99.90;;;11.73;100.00;101043.03;5051971;28;20119;-67
2022/12/25 07:02:23;;;;;;;43.80;30.08;;;11.70;99.90;;;11.91;100.00;101046.47;5052273;28;20045;-67
2022/12/25 07:04:52;;;;;;;37.80;26.52;;;11.70;99.90;;;11.47;100.00;100960.19;5052798;28;20052;-67
2022/12/25 07:07:22;;;;;;;36.60;25.98;;;11.70;99.90;;;11.92;100.00;101045.59;5052209;28;20045;-67
2022/12/25 07:09:50;;;;;;;32.42;22.40;;;11.70;99.90;;;11.87;100.00;101044.72;5052312;28;20073;-67
2022/12/25 07:12:23;;;;;;;33.85;24.80;;;11.70;99.90;;;11.90;100.00;101050.00;5052681;28;20044;-67
2022/12/25 07:14:55;;;;;;;38.25;24.85;;;11.70;99.90;;;11.75;100.00;101008.59;5052149;28;20139;-67
2022/12/25 07:17:24;;;;;;;36.72;25.23;;;11.80;99.90;;;11.94;100.00;101046.47;5052195;28;20428;-67
2022/12/25 07:19:53;;;;;;;40.15;27.15;;;11.70;99.90;;;12.03;100.00;101046.38;5052059;28;20068;-67
2022/12/25 07:22:21;;;;;;;40.33;28.52;;;11.80;99.90;;;12.11;100.00;101056.03;5052379;28;20045;-67
2022/12/25 07:24:49;;;;;;;46.58;28.65;;;11.90;99.90;;;12.05;100.00;101066.69;5053385;28;20052;-67
2022/12/25 07:27:17;;;;;;;40.38;27.45;;;11.90;99.90;;;12.08;100.00;101058.69;5056324;28;20103;-67
2022/12/25 07:29:47;;;;;;;35.03;23.67;;;11.90;99.90;;;12.01;100.00;101058.75;5071498;28;20489;-67
2022/12/25 07:32:15;;;;;;;33.22;21.45;;;11.80;99.90;;;11.91;100.00;101049.09;5055960;28;20051;-67
2022/12/25 07:34:44;;;;;;;27.98;20.40;;;11.80;99.90;;;12.04;100.00;101062.28;5055626;28;20041;-67
2022/12/25 07:37:13;;;;;;;28.75;19.67;;;11.90;99.90;;;12.03;100.00;101062.28;5056162;28;20116;-65
2022/12/25 07:39:41;;;;;;;29.10;19.70;;;11.90;99.90;;;12.03;99.96;101067.59;5071378;28;20128;-65
2022/12/25 07:42:09;;;;;;;36.92;21.67;;;11.90;99.90;;;12.03;100.00;101072.88;5055837;28;20102;-67
2022/12/25 07:44:38;;;;;;;31.58;22.20;;;11.90;99.90;;;11.67;100.00;101013.94;5055794;28;20325;-66
2022/12/25 07:47:07;;;;;;;33.20;22.13;;;11.90;99.90;;;11.82;100.00;101054.47;5055487;28;20069;-65
2022/12/25 07:49:36;;;;;;;34.00;21.98;;;11.80;99.90;;;11.99;100.00;101077.34;5055681;28;20055;-66
2022/12/25 07:52:05;;;;;;;38.38;23.55;;;11.90;99.90;;;12.03;100.00;101083.50;5056019;28;20116;-64
2022/12/25 07:54:33;;;;;;;29.83;21.48;;;11.80;99.90;;;11.93;100.00;101082.69;5055695;28;20040;-64
2022/12/25 07:57:03;;;;;;;36.28;23.58;;;11.80;99.90;;;11.91;100.00;101076.50;5071217;28;20045;-64
2022/12/25 07:59:31;;;;;;;33.35;23.67;;;11.80;99.90;;;11.91;100.00;101078.28;5055294;28;20052;-66
2022/12/25 08:02:00;;;;;;;38.08;23.67;;;11.70;99.90;;;11.91;100.00;101072.97;5055224;28;20520;-63
2022/12/25 08:04:30;;;;;;;33.95;21.52;;;11.70;99.90;;;11.87;100.00;101080.06;5070970;28;20099;-63
2022/12/25 08:06:58;;;;;;;36.95;23.08;;;11.80;99.90;;;11.83;100.00;101083.63;5055215;28;20491;-65
2022/12/25 08:09:27;;;;;;;35.15;23.02;;;11.70;99.90;;;11.65;100.00;101028.97;5055092;28;20143;-64
2022/12/25 08:11:55;;;;;;;31.90;21.13;;;11.80;99.90;;;12.02;100.00;101082.59;5055634;28;20139;-64
2022/12/25 08:14:23;;;;;;;27.80;19.20;;;11.90;99.90;;;11.84;100.00;101071.25;5054897;28;20055;-63
2022/12/25 08:16:52;;;;;;;32.45;19.48;;;11.70;99.90;;;11.69;100.00;101072.25;5054935;28;20037;-64
2022/12/25 08:19:20;;;;;;;31.75;21.70;;;11.60;99.90;;;11.57;100.00;101072.28;5054952;28;20053;-63
2022/12/25 08:21:50;;;;;;;35.20;23.27;;;11.50;99.90;;;11.38;100.00;101066.16;5054887;28;20098;-64
2022/12/25 08:24:18;;;;;;;34.33;23.20;;;11.30;99.90;;;11.29;100.00;101063.56;5054557;28;20064;-64
2022/12/25 08:26:47;;;;;;;36.30;23.52;;;11.20;99.90;;;11.28;100.00;101059.16;5054716;28;20045;-60
2022/12/25 08:29:16;;;;;;;39.90;25.50;;;11.30;99.90;;;11.24;100.00;101065.38;5054924;28;20049;-62
2022/12/25 08:31:44;;;;;;;38.38;23.98;;;11.20;99.90;;;11.14;100.00;101052.16;5054624;28;20041;-63
2022/12/25 08:34:14;;;;;;;42.83;25.95;;;11.10;99.90;;;11.16;100.00;101067.16;5054927;28;20383;-62
2022/12/25 08:36:42;;;;;;;52.53;26.70;;;11.10;99.90;;;11.17;100.00;101076.84;5053542;28;20487;-63
2022/12/25 08:39:12;;;;;;;42.75;26.92;;;11.10;99.90;;;11.22;100.00;101080.38;5070517;28;20106;-63
2022/12/25 08:41:40;;;;;;;44.13;26.63;;;11.10;99.90;;;11.41;100.00;101082.06;5054761;28;20490;-64
2022/12/25 08:44:13;;;;;;;40.35;26.13;;;11.30;99.90;;;11.32;100.00;101054.75;5054400;28;20048;-63
2022/12/25 08:46:41;;;;;;;38.45;23.40;;;11.30;99.90;;;11.44;100.00;101070.59;5054933;28;20052;-63
2022/12/25 08:49:10;;;;;;;34.58;23.17;;;11.30;99.90;;;11.53;100.00;101086.41;5054437;28;20072;-64
2022/12/25 08:51:38;;;;;;;29.65;19.52;;;11.40;99.90;;;11.53;100.00;101087.31;5054241;28;20044;-63
2022/12/25 08:54:06;;;;;;;26.33;17.77;;;11.50;99.90;;;11.56;100.00;101091.69;5054255;28;20124;-65
2022/12/25 08:56:36;;;;;;;19.50;14.73;;;11.50;99.90;;;11.59;100.00;101086.38;5053272;28;20467;-64
2022/12/25 08:59:05;;;;;;;15.70;12.52;;;11.50;99.90;;;11.42;100.00;101086.44;5054539;28;20143;-65
2022/12/25 09:01:33;;;;;;;18.65;12.05;;;11.40;99.90;;;11.56;100.00;101097.00;5054155;28;20075;-63
2022/12/25 09:04:01;;;;;;;15.90;11.18;;;11.50;99.90;;;11.58;100.00;101097.84;5054028;28;20068;-63
2022/12/25 09:06:30;;;;;;;13.50;10.48;;;11.50;99.90;;;11.62;100.00;101103.16;5054359;28;20463;-63
2022/12/25 09:08:59;;;;;;;14.73;11.18;;;11.50;99.90;;;11.22;100.00;101043.31;5054008;28;20045;-64
2022/12/25 09:11:27;;;;;;;14.68;10.70;;;11.50;99.90;;;11.71;100.00;101116.38;5054105;28;20051;-63
2022/12/25 09:13:57;;;;;;;14.70;10.40;;;11.60;99.90;;;11.74;100.00;101116.38;5054126;28;20045;-63
2022/12/25 09:16:25;;;;;;;14.63;11.27;;;11.70;99.90;;;11.72;100.00;101104.00;5053874;28;20048;-64
2022/12/25 09:18:57;;;;;;;14.27;12.02;;;11.60;99.90;;;11.65;100.00;101107.56;5052670;28;20049;-63
2022/12/25 09:21:25;;;;;;;18.52;14.80;;;11.60;99.90;;;11.65;100.00;101108.44;5054204;28;20041;-63
2022/12/25 09:23:53;;;;;;;20.40;16.38;;;11.60;99.90;;;11.59;100.00;101108.44;5053684;28;20119;-64
2022/12/25 09:26:22;;;;;;;19.10;16.08;;;11.60;99.90;;;11.54;100.00;101102.28;5053517;28;20049;-63
2022/12/25 09:28:50;;;;;;;18.63;15.73;;;11.50;99.90;;;11.64;100.00;101090.78;5053654;28;20106;-63
2022/12/25 09:31:22;;;;;;;20.90;15.40;;;11.50;99.90;;;11.59;100.00;101103.16;5053489;28;20076;-64
2022/12/25 09:33:51;;;;;;;19.90;15.73;;;11.50;99.90;;;11.33;100.00;101060.03;5053787;28;20102;-63
2022/12/25 09:36:22;;;;;;;22.60;16.40;;;11.40;99.90;;;11.31;100.00;101074.16;5053630;28;20055;-63
2022/12/25 09:38:51;;;;;;;20.00;14.95;;;11.40;99.90;;;11.54;100.00;101086.41;5054026;28;20174;-62
2022/12/25 09:41:28;;;;;;;19.67;14.90;;;11.40;99.90;;;10.60;100.00;100889.22;5053574;28;20135;-63
2022/12/25 09:44:02;;;;;;;20.27;15.43;;;11.50;99.90;;;11.64;100.00;101077.53;5053892;28;20071;-63
2022/12/25 09:46:40;;;;;;;19.10;15.07;;;11.60;99.90;;;11.62;100.00;101057.22;5053545;28;20049;-62
2022/12/25 09:49:20;;;;;;;20.85;15.35;;;11.60;99.90;;;11.61;100.00;101066.06;5068583;28;20056;-62
2022/12/25 09:51:55;;;;;;;21.23;16.38;;;11.50;99.90;;;11.70;100.00;101063.41;5053616;28;20053;-62
2022/12/25 09:54:37;;;;;;;20.65;16.55;;;11.60;99.90;;;11.63;100.00;101069.59;5053400;28;20467;-64
2022/12/25 09:57:10;;;;;;;25.05;16.75;;;11.60;99.90;;;11.64;100.00;101064.28;5052820;28;20041;-64
2022/12/25 09:59:39;;;;;;;26.10;18.08;;;11.50;99.90;;;11.62;100.00;101065.16;5053117;28;20057;-64
2022/12/25 10:02:57;;;;;;;27.10;17.10;;;11.50;99.90;;;11.58;100.00;101056.38;5052997;28;20513;-64
2022/12/25 10:06:04;;;;;;;26.20;18.13;;;11.50;99.90;;;11.57;100.00;101061.69;5053077;28;20098;-63
2022/12/25 10:09:03;;;;;;;27.55;18.13;;;11.50;99.90;;;11.68;100.00;101059.88;5044328;28;20061;-62
2022/12/25 10:11:55;;;;;;;26.08;17.83;;;11.60;99.90;;;11.81;100.00;101060.69;5052940;28;20127;-63
2022/12/25 10:14:31;;;;;;;22.40;17.40;;;11.60;99.90;;;11.87;100.00;101050.91;5053116;28;20449;-63
2022/12/25 10:17:20;;;;;;;26.75;18.55;;;11.70;99.90;;;11.85;100.00;101047.38;5052908;28;20422;-64
2022/12/25 10:19:57;;;;;;;24.42;17.20;;;11.80;99.90;;;11.75;100.00;101054.53;5052941;28;20040;-62
2022/12/25 10:22:34;;;;;;;21.08;16.70;;;11.70;99.90;;;11.60;100.00;101025.44;5051809;28;20491;-63
2022/12/25 10:25:05;;;;;;;24.50;17.58;;;11.70;99.90;;;11.60;100.00;101013.97;5053143;28;20043;-63
2022/12/25 10:27:39;;;;;;;20.48;15.75;;;11.60;99.90;;;11.72;100.00;101040.41;5052872;28;20505;-64
2022/12/25 10:30:15;;;;;;;22.60;17.77;;;11.70;99.90;;;11.61;100.00;101040.44;5053125;28;20041;-63
2022/12/25 10:32:46;;;;;;;23.38;17.88;;;11.60;99.90;;;11.55;100.00;101050.22;5052918;28;20036;-63
2022/12/25 10:35:18;;;;;;;20.92;16.15;;;11.50;99.90;;;11.52;100.00;101055.50;5052729;28;20483;-63
2022/12/25 10:38:03;;;;;;;20.75;16.63;;;11.50;99.90;;;11.46;100.00;101035.22;5053303;28;20463;-63
2022/12/25 10:40:44;;;;;;;20.17;15.35;;;11.40;99.90;;;11.35;100.00;101022.94;5052965;28;20099;-63
2022/12/25 10:43:17;;;;;;;19.25;14.70;;;11.40;99.90;;;11.50;100.00;101021.06;5052673;28;20487;-63
2022/12/25 10:45:47;;;;;;;16.58;14.45;;;11.40;99.90;;;11.36;100.00;101001.72;5052726;28;20075;-63
2022/12/25 10:48:23;;;;;;;19.20;14.07;;;11.30;99.90;;;11.40;100.00;101011.41;5052785;28;20059;-62
2022/12/25 10:50:52;;;;;;;18.30;13.90;;;11.30;99.90;;;11.35;100.00;101007.03;5052995;28;20088;-63
2022/12/25 10:53:24;;;;;;;14.90;13.30;;;11.20;99.90;;;11.30;100.00;100993.84;5053076;28;20049;-63
2022/12/25 10:55:58;;;;;;;16.60;13.13;;;11.10;99.90;;;11.24;100.00;100985.03;5052902;28;20641;-63
2022/12/25 10:58:28;;;;;;;16.80;13.70;;;11.00;99.90;;;11.26;100.00;100989.44;5052815;28;20045;-63
2022/12/25 11:01:01;;;;;;;16.88;13.85;;;11.00;99.90;;;11.14;100.00;100970.09;5055497;28;20076;-63
2022/12/25 11:03:34;;;;;;;19.10;14.38;;;11.10;99.90;;;11.34;100.00;100982.31;5056627;28;20048;-64
2022/12/25 11:06:03;;;;;;;15.35;13.30;;;11.20;99.90;;;11.40;100.00;100973.50;5056675;28;20067;-64
2022/12/25 11:08:33;;;;;;;17.40;14.32;;;11.10;99.90;;;10.81;100.00;100867.94;5056642;28;20044;-63
2022/12/25 11:11:05;;;;;;;17.08;13.55;;;11.20;99.90;;;11.26;100.00;100944.44;5056598;28;20098;-65
2022/12/25 11:13:39;;;;;;;18.13;13.80;;;11.10;99.90;;;11.57;100.00;100972.50;5056276;28;20055;-65
2022/12/25 11:16:14;;;;;;;16.75;13.70;;;11.30;99.90;;;11.79;100.00;100979.41;5056496;28;20057;-65
2022/12/25 11:18:51;;;;;;;19.17;14.80;;;11.50;99.90;;;11.85;100.00;100977.59;5056177;28;20055;-68
2022/12/25 11:21:23;;;;;;;15.98;13.98;;;11.60;99.90;;;11.70;100.00;100978.59;5056723;28;20128;-64
2022/12/25 11:23:58;;;;;;;17.92;14.85;;;11.50;99.90;;;11.62;100.00;100973.31;5056324;28;20546;-64
2022/12/25 11:26:28;;;;;;;17.48;14.63;;;11.50;99.90;;;11.64;100.00;100978.59;5056041;28;20045;-64
2022/12/25 11:28:58;;;;;;;16.90;13.90;;;11.50;99.90;;;11.68;100.00;100972.44;5056038;28;20068;-64
2022/12/25 11:31:36;;;;;;;18.40;14.77;;;11.50;99.90;;;11.65;100.00;100965.38;5055863;28;20036;-66
2022/12/25 11:34:14;;;;;;;19.25;14.52;;;11.60;99.90;;;11.63;100.00;100967.13;5055122;28;20558;-66
2022/12/25 11:36:45;;;;;;;20.20;14.95;;;11.50;99.90;;;11.48;100.00;100969.88;5055885;28;20442;-66
2022/12/25 11:39:24;;;;;;;20.77;15.38;;;11.50;99.90;;;11.44;100.00;100970.78;5056301;28;20072;-65
2022/12/25 11:42:01;;;;;;;19.20;14.45;;;11.40;99.90;;;11.37;100.00;100958.50;5056043;28;20052;-65
2022/12/25 11:44:42;;;;;;;21.42;16.13;;;11.30;99.90;;;11.37;100.00;100947.91;5055856;28;20431;-63
2022/12/25 11:47:19;;;;;;;22.25;15.38;;;11.30;99.90;;;11.38;100.00;100943.50;5055870;28;20494;-63
2022/12/25 11:49:55;;;;;;;23.13;15.88;;;11.30;99.90;;;11.35;100.00;100907.31;5055626;28;20069;-64
2022/12/25 11:52:35;;;;;;;19.42;14.95;;;11.40;99.90;;;11.41;100.00;100920.50;5055840;28;20487;-64
2022/12/25 11:55:10;;;;;;;22.83;15.20;;;11.30;99.90;;;11.33;100.00;100914.38;5055522;28;20565;-63